Time;durP1;ratioP1;P1;durP2;ratioP2;P2;SDS_P1;SDS_P2;PMS_P1;PMS_P2;Temp;Humidity;BMP_temperature;BMP_pressure;BME280_temperature;BME280_humidity;BME280_pressure;Samples;Min_cycle;Max_cycle;Signal;HPM_P1;HPM_P2
2021/07/24 00:01:04;;;;;;;7.75;6.22;;;;;;;18.79;59.29;101249.53;5071515;28;20115;-80
2021/07/24 00:03:29;;;;;;;8.82;5.85;;;;;;;18.83;59.00;101256.34;5072301;28;20888;-80
2021/07/24 00:05:55;;;;;;;8.57;7.38;;;;;;;18.85;58.78;101248.81;5072555;28;20392;-80
2021/07/24 00:08:20;;;;;;;11.07;7.18;;;;;;;18.91;58.50;101245.38;5072562;28;20023;-81
2021/07/24 00:10:46;;;;;;;8.73;5.85;;;;;;;18.92;58.44;101251.72;5070923;28;20029;-80
2021/07/24 00:13:11;;;;;;;6.28;5.53;;;;;;;18.89;58.07;101246.59;5072191;28;20036;-80
2021/07/24 00:15:37;;;;;;;8.80;5.70;;;;;;;18.82;58.47;101247.31;5070226;28;20117;-80
2021/07/24 00:18:02;;;;;;;10.68;6.30;;;;;;;18.76;58.76;101248.03;5070256;28;20633;-81
2021/07/24 00:20:27;;;;;;;8.07;5.90;;;;;;;18.73;59.09;101247.50;5070480;28;20144;-81
2021/07/24 00:22:53;;;;;;;11.82;7.35;;;;;;;18.44;61.05;101253.56;5072344;28;20107;-80
2021/07/24 00:25:18;;;;;;;9.20;6.70;;;;;;;18.47;60.52;101253.22;5072403;28;20059;-81
2021/07/24 00:27:44;;;;;;;12.45;6.57;;;;;;;18.51;59.71;101249.09;5070493;28;20024;-80
2021/07/24 00:30:09;;;;;;;8.15;6.13;;;;;;;18.55;59.41;101242.28;5071981;28;20063;-80
2021/07/24 00:32:35;;;;;;;7.28;5.68;;;;;;;18.34;60.61;101249.16;5071883;28;20028;-80
2021/07/24 00:35:01;;;;;;;10.90;6.75;;;;;;;18.19;60.61;101250.91;5071448;28;20025;-80
2021/07/24 00:37:26;;;;;;;8.50;6.13;;;;;;;18.17;60.78;101252.09;5071875;28;20020;-80
2021/07/24 00:39:52;;;;;;;7.60;6.32;;;;;;;18.14;60.39;101258.72;5070057;28;20105;-80
2021/07/24 00:42:21;;;;;;;8.70;7.30;;;;;;;18.14;60.94;101253.28;5071548;28;20029;-80
2021/07/24 00:44:47;;;;;;;7.03;5.72;;;;;;;18.03;61.14;101250.91;5071385;28;20097;-80
2021/07/24 00:47:40;;;;;;;10.63;7.13;;;;;;;17.99;60.95;101249.56;5071340;28;20040;-80
2021/07/24 00:50:11;;;;;;;7.78;6.70;;;;;;;18.03;60.30;101243.59;5069615;28;20025;-80
2021/07/24 00:52:40;;;;;;;9.68;6.57;;;;;;;18.09;59.52;101252.94;5071331;28;20103;-80
2021/07/24 00:55:06;;;;;;;13.60;7.65;;;;;;;18.18;59.42;101237.44;5071252;28;20033;-80
2021/07/24 00:57:32;;;;;;;9.75;7.30;;;;;;;18.00;60.36;101245.81;5071046;28;20051;-80
2021/07/24 00:59:57;;;;;;;12.02;7.63;;;;;;;17.91;61.13;101251.28;5069401;28;20073;-81
2021/07/24 01:02:23;;;;;;;7.63;6.35;;;;;;;17.97;61.17;101247.03;5071032;28;20028;-80
2021/07/24 01:04:48;;;;;;;8.75;6.82;;;;;;;17.79;62.18;101254.50;5070994;28;20119;-80
2021/07/24 01:07:14;;;;;;;10.43;7.85;;;;;;;17.68;61.78;101244.78;5071291;28;20031;-80
2021/07/24 01:09:40;;;;;;;9.85;7.60;;;;;;;17.86;61.03;101245.47;5070916;28;20077;-80
2021/07/24 01:12:05;;;;;;;9.98;7.10;;;;;;;18.05;60.28;101254.31;5070009;28;20030;-80
2021/07/24 01:14:31;;;;;;;7.60;6.10;;;;;;;18.08;59.66;101246.63;5069385;28;20716;-80
2021/07/24 01:16:57;;;;;;;12.88;7.28;;;;;;;18.00;59.63;101243.94;5070794;28;20107;-80
2021/07/24 01:19:23;;;;;;;10.38;7.95;;;;;;;17.94;60.70;101241.03;5069099;28;20131;-80
2021/07/24 01:21:49;;;;;;;9.15;8.10;;;;;;;17.86;59.98;101244.63;5070522;28;20032;-80
2021/07/24 01:24:14;;;;;;;10.68;7.38;;;;;;;17.65;61.03;101242.41;5070899;28;20028;-80
2021/07/24 01:26:44;;;;;;;12.50;8.07;;;;;;;17.54;61.40;101245.44;5070723;28;20362;-80
2021/07/24 01:29:15;;;;;;;14.20;8.18;;;;;;;17.63;61.24;101236.25;5070799;28;20032;-80
2021/07/24 01:31:42;;;;;;;12.85;9.60;;;;;;;17.68;61.12;101234.75;5070564;28;20449;-80
2021/07/24 01:34:07;;;;;;;11.98;8.50;;;;;;;17.71;60.85;101236.28;5070960;28;20031;-80
2021/07/24 01:36:33;;;;;;;13.40;9.05;;;;;;;17.56;61.73;101241.53;5068919;28;20388;-80
2021/07/24 01:38:58;;;;;;;11.63;8.95;;;;;;;17.53;61.91;101233.72;5070496;28;20032;-80
2021/07/24 01:41:23;;;;;;;11.82;9.57;;;;;;;17.48;62.55;101237.97;5068804;28;20050;-80
2021/07/24 01:43:49;;;;;;;17.17;12.25;;;;;;;17.46;62.89;101229.97;5069283;28;20031;-80
2021/07/24 01:46:14;;;;;;;15.23;11.45;;;;;;;17.50;62.90;101235.94;5070446;28;20020;-80
2021/07/24 01:48:47;;;;;;;17.40;12.05;;;;;;;17.48;63.23;101227.97;5070199;28;20021;-80
2021/07/24 01:54:01;;;;;;;17.55;11.35;;;;;;;17.34;63.96;101228.63;5069995;28;20511;-80
2021/07/24 01:56:30;;;;;;;15.57;11.32;;;;;;;17.36;63.66;101222.00;5070376;28;20028;-80
2021/07/24 01:58:56;;;;;;;13.52;9.85;;;;;;;17.42;62.95;101226.75;5070208;28;20150;-80
2021/07/24 02:01:26;;;;;;;16.20;12.10;;;;;;;17.56;62.61;101227.09;5070344;28;20119;-80
2021/07/24 02:03:55;;;;;;;13.50;11.30;;;;;;;17.58;61.75;101225.06;5070303;28;20024;-80
2021/07/24 02:06:21;;;;;;;13.00;10.40;;;;;;;17.54;62.04;101223.69;5070168;28;20047;-80
2021/07/24 02:08:50;;;;;;;16.10;11.27;;;;;;;17.54;62.27;101226.41;5070163;28;20024;-80
2021/07/24 02:11:18;;;;;;;14.32;11.70;;;;;;;17.68;61.51;101225.72;5070056;28;20039;-80
2021/07/24 02:13:46;;;;;;;17.83;11.20;;;;;;;17.50;62.07;101222.34;5070488;28;20530;-80
2021/07/24 02:16:12;;;;;;;15.70;11.48;;;;;;;17.46;62.69;101222.66;5070209;28;20114;-80
2021/07/24 02:18:39;;;;;;;16.50;11.63;;;;;;;17.53;62.46;101227.44;5070122;28;20032;-80
2021/07/24 02:21:05;;;;;;;16.52;11.07;;;;;;;17.60;61.81;101228.44;5070345;28;20111;-80
2021/07/24 02:23:30;;;;;;;17.58;12.25;;;;;;;17.55;61.95;101228.13;5072163;28;20111;-80
2021/07/24 02:25:55;;;;;;;16.48;12.77;;;;;;;17.62;61.87;101223.69;5072648;28;20468;-80
2021/07/24 02:28:21;;;;;;;17.02;12.07;;;;;;;17.65;61.58;101226.06;5074076;28;20156;-80
2021/07/24 02:30:46;;;;;;;19.83;13.38;;;;;;;17.53;61.79;101214.69;5072743;28;20020;-80
2021/07/24 02:33:12;;;;;;;18.60;12.80;;;;;;;17.37;62.37;101222.84;5072032;28;20028;-80
2021/07/24 02:35:38;;;;;;;21.67;12.68;;;;;;;17.45;61.72;101218.25;5074151;28;20044;-80
2021/07/24 02:38:05;;;;;;;17.50;12.65;;;;;;;17.44;61.77;101224.69;5073894;28;20480;-80
2021/07/24 02:40:30;;;;;;;17.83;11.63;;;;;;;17.35;62.50;101216.72;5073836;28;20036;-80
2021/07/24 02:42:55;;;;;;;17.48;12.88;;;;;;;17.51;61.64;101221.31;5074436;28;20085;-80
2021/07/24 02:45:21;;;;;;;18.90;13.23;;;;;;;17.59;61.55;101216.72;5074194;28;20021;-80
2021/07/24 02:47:47;;;;;;;15.95;11.95;;;;;;;17.68;61.23;101212.13;5073494;28;20035;-80
2021/07/24 02:50:12;;;;;;;17.52;11.45;;;;;;;17.58;61.64;101208.75;5073658;28;20542;-80
2021/07/24 02:52:38;;;;;;;24.05;13.75;;;;;;;17.40;62.32;101206.19;5074072;28;20039;-80
2021/07/24 02:55:04;;;;;;;23.17;13.63;;;;;;;17.38;62.51;101205.50;5073654;28;20417;-80
2021/07/24 02:57:29;;;;;;;27.98;16.02;;;;;;;17.52;62.78;101202.13;5073647;28;20531;-80
2021/07/24 02:59:54;;;;;;;21.75;14.68;;;;;;;17.43;62.74;101205.84;5073797;28;20484;-80
2021/07/24 03:02:19;;;;;;;23.33;16.15;;;;;;;17.37;63.50;101201.94;5073815;28;20025;-80
2021/07/24 03:04:45;;;;;;;20.08;13.98;;;;;;;17.41;63.14;101200.56;5073502;28;20021;-80
2021/07/24 03:07:10;;;;;;;19.63;13.45;;;;;;;17.43;62.64;101203.13;5073849;28;20028;-80
2021/07/24 03:09:36;;;;;;;19.35;13.80;;;;;;;17.43;62.61;101198.53;5071945;28;20028;-80
2021/07/24 03:12:02;;;;;;;22.05;15.27;;;;;;;17.51;62.83;101199.53;5073489;28;20030;-80
2021/07/24 03:14:27;;;;;;;15.77;12.38;;;;;;;17.39;62.75;101194.47;5073350;28;20047;-80
2021/07/24 03:16:52;;;;;;;17.60;13.82;;;;;;;17.26;63.50;101188.66;5073794;28;20032;-80
2021/07/24 03:19:18;;;;;;;19.85;14.13;;;;;;;17.30;63.37;101189.19;5073524;28;20054;-80
2021/07/24 03:21:43;;;;;;;23.58;15.70;;;;;;;17.30;63.92;101189.19;5073275;28;20032;-80
2021/07/24 03:24:08;;;;;;;24.92;16.17;;;;;;;17.27;64.33;101192.25;5071671;28;20040;-80
2021/07/24 03:26:34;;;;;;;23.27;15.88;;;;;;;17.12;64.56;101187.47;5073432;28;20029;-80
2021/07/24 03:28:59;;;;;;;26.02;16.80;;;;;;;17.26;63.97;101190.53;5071999;28;20021;-80
2021/07/24 03:31:25;;;;;;;23.30;15.68;;;;;;;17.39;63.33;101194.47;5073268;28;20029;-80
2021/07/24 03:33:50;;;;;;;17.13;14.18;;;;;;;17.35;63.20;101184.09;5072690;28;20062;-80
2021/07/24 03:36:15;;;;;;;26.08;15.57;;;;;;;17.38;62.85;101184.59;5072931;28;20476;-80
2021/07/24 03:38:41;;;;;;;22.48;15.25;;;;;;;17.35;62.56;101181.38;5073105;28;20025;-80
2021/07/24 03:41:06;;;;;;;26.67;18.10;;;;;;;17.36;62.95;101181.22;5073207;28;20025;-80
2021/07/24 03:43:32;;;;;;;23.17;15.23;;;;;;;17.35;63.65;101176.78;5073436;28;20060;-80
2021/07/24 03:45:57;;;;;;;23.05;15.65;;;;;;;17.35;63.29;101174.06;5072700;28;20020;-80
2021/07/24 03:48:23;;;;;;;21.08;14.55;;;;;;;17.36;63.09;101175.78;5071684;28;20023;-80
2021/07/24 03:50:48;;;;;;;19.08;13.80;;;;;;;17.43;62.57;101156.91;5071357;28;20024;-80
2021/07/24 03:53:14;;;;;;;18.45;12.75;;;;;;;17.42;62.37;101168.81;5071086;28;20024;-80
2021/07/24 03:55:39;;;;;;;22.20;14.82;;;;;;;17.30;63.15;101165.56;5072670;28;20085;-80
2021/07/24 03:58:04;;;;;;;22.98;14.35;;;;;;;17.36;62.98;101172.22;5072464;28;20123;-80
2021/07/24 04:00:37;;;;;;;21.98;14.23;;;;;;;17.45;62.67;101163.88;5072541;28;20037;-80
2021/07/24 04:03:03;;;;;;;15.95;12.32;;;;;;;17.45;62.66;101165.75;5072435;28;20029;-80
2021/07/24 04:05:32;;;;;;;19.52;14.52;;;;;;;17.50;62.58;101162.50;5072586;28;20039;-80
2021/07/24 04:07:58;;;;;;;21.88;15.23;;;;;;;17.49;62.75;101152.66;5070735;28;20036;-80
2021/07/24 04:10:23;;;;;;;20.20;14.07;;;;;;;17.53;62.52;101154.00;5072609;28;20024;-80
2021/07/24 04:12:52;;;;;;;16.17;12.63;;;;;;;17.55;62.58;101158.25;5072122;28;20088;-80
2021/07/24 04:15:18;;;;;;;21.25;14.48;;;;;;;17.56;62.96;101156.38;5072669;28;20063;-80
2021/07/24 04:17:43;;;;;;;18.10;13.05;;;;;;;17.61;62.56;101143.13;5071986;28;20033;-80
2021/07/24 04:20:10;;;;;;;20.83;13.85;;;;;;;17.60;62.88;101145.00;5071650;28;20043;-80
2021/07/24 04:22:35;;;;;;;15.50;11.98;;;;;;;17.65;63.05;101144.47;5072124;28;20060;-80
2021/07/24 04:25:01;;;;;;;21.60;15.80;;;;;;;17.67;64.18;101139.72;5070315;28;20048;-80
2021/07/24 04:27:26;;;;;;;18.23;12.82;;;;;;;17.82;64.95;101140.75;5071976;28;20844;-80
2021/07/24 04:29:51;;;;;;;23.38;16.20;;;;;;;17.89;64.26;101141.75;5071927;28;20494;-80
2021/07/24 04:32:16;;;;;;;24.15;15.63;;;;;;;17.98;63.47;101137.13;5070092;28;20131;-80
2021/07/24 04:34:42;;;;;;;23.55;15.43;;;;;;;18.03;63.50;101140.19;5070260;28;20051;-80
2021/07/24 04:37:07;;;;;;;21.27;14.95;;;;;;;18.09;63.93;101128.59;5071492;28;20102;-80
2021/07/24 04:39:32;;;;;;;22.77;15.52;;;;;;;18.17;62.99;101124.13;5071797;28;20024;-80
2021/07/24 04:41:58;;;;;;;22.98;15.55;;;;;;;18.15;63.86;101127.03;5071885;28;20451;-80
2021/07/24 04:44:23;;;;;;;19.10;14.77;;;;;;;18.24;64.14;101133.28;5071593;28;20024;-80
2021/07/24 04:46:48;;;;;;;21.35;14.32;;;;;;;18.23;65.02;101131.59;5071142;28;20062;-80
2021/07/24 04:49:14;;;;;;;22.52;14.95;;;;;;;18.21;63.86;101131.75;5069729;28;20112;-80
2021/07/24 04:51:39;;;;;;;21.70;14.65;;;;;;;18.30;64.70;101140.75;5071150;28;20036;-80
2021/07/24 04:54:06;;;;;;;27.77;16.55;;;;;;;18.27;64.44;101136.50;5071454;28;20043;-80
2021/07/24 04:56:32;;;;;;;22.73;16.60;;;;;;;18.35;64.78;101139.19;5071504;28;20090;-80
2021/07/24 04:58:59;;;;;;;21.77;15.98;;;;;;;18.40;65.06;101138.69;5071088;28;20400;-80
2021/07/24 05:01:25;;;;;;;27.23;16.25;;;;;;;18.43;65.30;101146.50;5071057;28;20024;-80
2021/07/24 05:03:50;;;;;;;20.48;14.88;;;;;;;18.43;64.56;101140.22;5069874;28;20036;-81
2021/07/24 05:06:16;;;;;;;28.58;17.35;;;;;;;18.46;65.38;101145.31;5070374;28;20392;-80
2021/07/24 05:08:41;;;;;;;19.33;14.30;;;;;;;18.43;66.05;101146.50;5070762;28;20032;-80
2021/07/24 05:11:06;;;;;;;20.08;15.27;;;;;;;18.48;66.00;101148.69;5069349;28;20040;-80
2021/07/24 05:13:32;;;;;;;24.63;15.85;;;;;;;18.53;66.83;101146.28;5070976;28;20082;-80
2021/07/24 05:15:57;;;;;;;24.10;16.70;;;;;;;18.57;66.97;101139.44;5071564;28;20466;-80
2021/07/24 05:18:23;;;;;;;29.98;17.00;;;;;;;18.65;66.67;101142.13;5071344;28;20406;-80
2021/07/24 05:20:48;;;;;;;20.65;15.45;;;;;;;18.74;66.00;101141.09;5071336;28;20028;-80
2021/07/24 05:23:14;;;;;;;19.75;15.48;;;;;;;18.75;66.27;101139.19;5069594;28;20059;-80
2021/07/24 05:25:41;;;;;;;16.92;13.35;;;;;;;18.75;66.17;101137.31;5070829;28;20063;-80
2021/07/24 05:28:06;;;;;;;18.05;13.15;;;;;;;18.77;66.38;101139.88;5071713;28;20028;-80
2021/07/24 05:30:31;;;;;;;20.25;13.15;;;;;;;18.85;66.07;101141.69;5069083;28;20066;-80
2021/07/24 05:32:57;;;;;;;18.50;11.98;;;;;;;18.90;65.90;101150.19;5071033;28;20716;-80
2021/07/24 05:35:22;;;;;;;15.75;10.85;;;;;;;18.86;65.77;101146.97;5071150;28;20028;-80
2021/07/24 05:37:47;;;;;;;15.35;10.73;;;;;;;18.94;65.57;101148.78;5070709;28;20503;-80
2021/07/24 05:40:13;;;;;;;15.13;9.55;;;;;;;18.96;65.22;101144.00;5069330;28;20035;-80
2021/07/24 05:42:38;;;;;;;15.98;9.57;;;;;;;18.97;65.34;101145.69;5070547;28;20028;-80
2021/07/24 05:45:05;;;;;;;11.55;8.88;;;;;;;18.94;65.32;101149.63;5071280;28;20161;-80
2021/07/24 05:47:31;;;;;;;15.30;10.38;;;;;;;18.94;65.56;101143.34;5071266;28;20040;-80
2021/07/24 05:49:57;;;;;;;13.07;9.82;;;;;;;19.03;65.38;101151.28;5070894;28;20020;-80
2021/07/24 05:52:23;;;;;;;12.98;9.98;;;;;;;19.09;65.28;101146.97;5071020;28;20472;-80
2021/07/24 05:54:48;;;;;;;11.98;8.50;;;;;;;19.08;65.54;101158.06;5069310;28;20535;-80
2021/07/24 05:57:14;;;;;;;15.52;8.73;;;;;;;19.11;65.20;101164.00;5069647;28;20039;-80
2021/07/24 05:59:39;;;;;;;10.63;8.57;;;;;;;19.06;65.51;101160.97;5075198;28;20048;-80
2021/07/24 06:02:05;;;;;;;12.07;8.90;;;;;;;19.04;65.54;101163.03;5073655;28;20079;-80
2021/07/24 06:04:32;;;;;;;11.15;7.82;;;;;;;19.05;65.14;101168.31;5075021;28;20032;-80
2021/07/24 06:06:58;;;;;;;15.30;8.68;;;;;;;19.00;66.14;101167.97;5075108;28;20025;-80
2021/07/24 06:09:23;;;;;;;14.63;8.90;;;;;;;19.11;65.23;101165.88;5074804;28;20469;-80
2021/07/24 06:11:48;;;;;;;11.95;7.28;;;;;;;19.17;65.41;101163.28;5073292;28;20472;-80
2021/07/24 06:14:14;;;;;;;11.38;6.88;;;;;;;19.18;65.40;101162.25;5074995;28;20051;-80
2021/07/24 06:16:39;;;;;;;12.13;7.32;;;;;;;19.23;65.72;101168.00;5073361;28;20064;-80
2021/07/24 06:19:04;;;;;;;12.88;8.02;;;;;;;19.22;66.71;101169.03;5073171;28;20128;-80
2021/07/24 06:21:30;;;;;;;10.18;8.00;;;;;;;19.19;67.02;101168.53;5073243;28;20043;-80
2021/07/24 06:23:55;;;;;;;8.43;6.88;;;;;;;19.32;66.17;101174.25;5074871;28;20020;-80
2021/07/24 06:26:20;;;;;;;14.90;8.23;;;;;;;19.40;65.55;101167.88;5074734;28;20029;-80
2021/07/24 06:28:46;;;;;;;10.20;7.18;;;;;;;19.43;65.39;101172.94;5074687;28;20020;-80
2021/07/24 06:31:11;;;;;;;11.32;6.93;;;;;;;19.45;65.51;101179.09;5074749;28;20590;-81
2021/07/24 06:33:37;;;;;;;9.60;6.68;;;;;;;19.61;64.57;101181.66;5072027;28;20032;-81
2021/07/24 06:36:02;;;;;;;9.52;7.03;;;;;;;19.64;64.57;101166.81;5073745;28;20036;-81
2021/07/24 06:38:28;;;;;;;7.53;6.32;;;;;;;19.73;63.98;101172.03;5074124;28;20119;-81
2021/07/24 06:40:54;;;;;;;13.80;6.75;;;;;;;19.68;64.28;101169.03;5074663;28;20032;-81
2021/07/24 06:43:19;;;;;;;10.98;7.65;;;;;;;19.76;64.17;101167.25;5074542;28;20055;-81
2021/07/24 06:45:44;;;;;;;7.10;6.22;;;;;;;19.76;64.68;101172.69;5074233;28;20476;-81
2021/07/24 06:48:10;;;;;;;11.43;6.95;;;;;;;19.81;64.95;101175.72;5073066;28;20082;-81
2021/07/24 06:50:35;;;;;;;11.15;7.65;;;;;;;19.91;64.35;101165.38;5074211;28;20028;-80
2021/07/24 06:53:00;;;;;;;11.30;6.72;;;;;;;19.97;63.94;101159.19;5074146;28;20472;-80
2021/07/24 06:55:26;;;;;;;11.20;7.80;;;;;;;19.98;63.83;101169.91;5074183;28;20028;-80
2021/07/24 06:57:52;;;;;;;10.20;7.38;;;;;;;20.02;64.10;101166.78;5074042;28;20484;-80
2021/07/24 07:00:17;;;;;;;8.45;7.07;;;;;;;20.09;63.65;101141.28;5072075;28;20039;-80
2021/07/24 07:02:43;;;;;;;9.50;6.72;;;;;;;20.15;63.65;101148.72;5071972;28;20048;-80
2021/07/24 07:05:09;;;;;;;10.15;6.70;;;;;;;20.16;64.03;101144.09;5073432;28;20024;-80
2021/07/24 07:07:35;;;;;;;8.15;6.43;;;;;;;20.11;65.04;101149.28;5071926;28;20024;-80
2021/07/24 07:10:01;;;;;;;14.07;7.60;;;;;;;20.22;63.63;101146.09;5073304;28;20380;-80
2021/07/24 07:12:26;;;;;;;10.15;7.25;;;;;;;20.24;63.68;101143.19;5071666;28;20499;-80
2021/07/24 07:14:52;;;;;;;9.10;6.45;;;;;;;20.30;63.80;101136.97;5073243;28;20048;-80
2021/07/24 07:17:17;;;;;;;9.35;7.68;;;;;;;20.32;63.74;101138.44;5072189;28;20036;-80
2021/07/24 07:19:42;;;;;;;10.10;6.40;;;;;;;20.31;63.90;101133.19;5073316;28;20043;-80
2021/07/24 07:22:08;;;;;;;8.23;6.72;;;;;;;20.39;62.78;101133.09;5072250;28;20472;-80
2021/07/24 07:24:33;;;;;;;12.30;7.60;;;;;;;20.39;63.38;101139.38;5073361;28;20028;-81
2021/07/24 07:26:59;;;;;;;16.00;7.00;;;;;;;20.49;63.52;101124.59;5072119;28;20028;-80
2021/07/24 07:29:24;;;;;;;9.68;6.25;;;;;;;20.47;63.27;101126.66;5073013;28;20050;-81
2021/07/24 07:31:50;;;;;;;8.45;6.00;;;;;;;20.55;62.76;101121.13;5071523;28;20459;-81
2021/07/24 07:34:15;;;;;;;8.60;6.30;;;;;;;20.57;62.15;101113.56;5071729;28;20056;-80
2021/07/24 07:36:40;;;;;;;8.57;6.60;;;;;;;20.54;62.24;101117.53;5071451;28;20464;-80
2021/07/24 07:39:06;;;;;;;10.30;6.53;;;;;;;20.54;61.90;101113.94;5076771;28;20035;-81
2021/07/24 07:41:31;;;;;;;9.30;6.20;;;;;;;20.54;62.32;101116.66;5078632;28;20113;-81
2021/07/24 07:43:57;;;;;;;11.45;6.78;;;;;;;20.63;62.01;101116.38;5081304;28;20060;-81
2021/07/24 07:46:22;;;;;;;8.40;6.38;;;;;;;20.64;61.57;101111.75;5081061;28;20024;-81
2021/07/24 07:48:48;;;;;;;8.45;5.97;;;;;;;20.70;61.61;101108.25;5077320;28;20101;-81
2021/07/24 07:51:13;;;;;;;22.40;6.50;;;;;;;20.78;61.32;101110.84;5080372;28;20061;-81
2021/07/24 07:53:38;;;;;;;10.90;7.25;;;;;;;20.81;61.07;101104.16;5079840;28;20031;-81
2021/07/24 07:56:06;;;;;;;13.30;6.70;;;;;;;20.78;61.57;101099.91;5081454;28;20039;-81
2021/07/24 07:58:31;;;;;;;12.48;7.13;;;;;;;20.86;62.04;101104.44;5081900;28;20605;-81
2021/07/24 08:00:57;;;;;;;11.43;6.75;;;;;;;20.96;62.25;101106.84;5078835;28;20047;-81
2021/07/24 08:03:25;;;;;;;17.08;8.43;;;;;;;20.94;61.95;101101.56;5078911;28;20028;-80
2021/07/24 08:05:52;;;;;;;10.18;7.40;;;;;;;20.97;61.81;101095.72;5078760;28;20142;-81
2021/07/24 08:08:17;;;;;;;12.88;7.80;;;;;;;21.03;61.65;101099.56;5081580;28;20028;-81
2021/07/24 08:10:42;;;;;;;9.13;6.90;;;;;;;21.06;61.72;101093.69;5080735;28;20055;-81
2021/07/24 08:13:16;;;;;;;12.80;7.45;;;;;;;20.98;61.65;101086.47;5075351;28;20408;-81
2021/07/24 08:15:43;;;;;;;10.90;7.95;;;;;;;21.07;61.54;101084.44;5074854;28;20076;-80
2021/07/24 08:18:08;;;;;;;12.10;7.60;;;;;;;21.04;61.58;101080.22;5077887;28;20115;-80
2021/07/24 08:20:34;;;;;;;14.25;9.10;;;;;;;21.13;61.29;101082.81;5076922;28;20129;-80
2021/07/24 08:23:00;;;;;;;15.55;8.50;;;;;;;21.16;60.58;101082.41;5078814;28;20030;-80
2021/07/24 08:25:26;;;;;;;11.25;7.85;;;;;;;21.21;60.88;101069.84;5079801;28;20035;-80
2021/07/24 08:27:53;;;;;;;16.90;7.82;;;;;;;21.26;61.48;101066.50;5077455;28;20447;-80
2021/07/24 08:30:18;;;;;;;13.98;8.35;;;;;;;21.33;60.42;101072.88;5077328;28;20033;-80
2021/07/24 08:32:43;;;;;;;14.60;8.52;;;;;;;21.30;59.98;101074.13;5073154;28;20028;-81
2021/07/24 08:35:10;;;;;;;12.13;7.43;;;;;;;21.42;60.00;101077.19;5072595;28;20020;-80
2021/07/24 08:37:45;;;;;;;16.90;9.55;;;;;;;21.39;59.23;101066.63;5072143;28;20043;-81
2021/07/24 08:40:12;;;;;;;17.15;8.30;;;;;;;21.47;59.46;101057.44;5072359;28;20052;-80
2021/07/24 08:42:39;;;;;;;11.02;8.13;;;;;;;21.49;60.70;101061.69;5070322;28;20028;-80
2021/07/24 08:45:06;;;;;;;12.57;8.73;;;;;;;21.53;59.81;101057.47;5072126;28;20480;-80
2021/07/24 08:47:32;;;;;;;16.10;8.93;;;;;;;21.55;59.01;101055.41;5071113;28;20036;-80
2021/07/24 08:49:59;;;;;;;15.82;9.45;;;;;;;21.53;59.50;101062.13;5070329;28;20016;-80
2021/07/24 08:52:30;;;;;;;12.30;8.50;;;;;;;21.68;59.00;101062.00;5070887;28;20048;-80
2021/07/24 08:54:57;;;;;;;19.30;9.43;;;;;;;21.72;59.21;101055.06;5071125;28;20032;-80
2021/07/24 08:57:31;;;;;;;14.52;8.73;;;;;;;21.79;57.91;101056.81;5071147;28;20495;-81
2021/07/24 09:00:01;;;;;;;13.57;8.52;;;;;;;21.79;57.66;101056.81;5069132;28;20055;-81
2021/07/24 09:02:28;;;;;;;14.05;8.20;;;;;;;21.80;56.98;101050.28;5070314;28;20028;-81
2021/07/24 09:04:55;;;;;;;11.93;7.75;;;;;;;21.80;58.21;101063.97;5072022;28;20033;-80
2021/07/24 09:07:25;;;;;;;17.95;8.73;;;;;;;21.83;56.44;101046.31;5070951;28;20165;-80
2021/07/24 09:09:55;;;;;;;10.43;6.90;;;;;;;21.93;54.69;101051.41;5072759;28;20468;-81
2021/07/24 09:12:20;;;;;;;11.25;7.15;;;;;;;21.98;55.23;101038.78;5070453;28;20032;-80
2021/07/24 09:14:46;;;;;;;10.70;6.75;;;;;;;21.98;54.65;101036.06;5071647;28;20071;-81
2021/07/24 09:17:12;;;;;;;10.77;6.85;;;;;;;22.04;54.99;101039.88;5070429;28;20028;-81
2021/07/24 09:19:38;;;;;;;13.27;7.28;;;;;;;22.09;55.77;101031.88;5072349;28;20036;-81
2021/07/24 09:22:03;;;;;;;11.02;6.85;;;;;;;22.13;54.33;101033.19;5071739;28;20066;-81
2021/07/24 09:24:29;;;;;;;13.63;6.55;;;;;;;22.11;54.00;101032.53;5072625;28;20108;-81
2021/07/24 09:26:54;;;;;;;9.13;6.43;;;;;;;22.18;54.74;101019.72;5072072;28;20035;-81
2021/07/24 09:29:21;;;;;;;10.25;6.68;;;;;;;22.24;55.35;101031.75;5072360;28;20016;-81
2021/07/24 09:31:47;;;;;;;13.07;6.65;;;;;;;22.28;55.76;101024.81;5070894;28;20025;-81
2021/07/24 09:34:15;;;;;;;11.13;6.13;;;;;;;22.33;55.01;101025.03;5071620;28;20028;-81
2021/07/24 09:36:42;;;;;;;9.90;6.15;;;;;;;22.43;54.92;101030.13;5070085;28;20077;-80
2021/07/24 09:39:15;;;;;;;11.52;6.70;;;;;;;22.43;54.07;101028.22;5071401;28;20036;-80
2021/07/24 09:41:46;;;;;;;10.38;5.57;;;;;;;22.51;51.94;101024.47;5071568;28;20039;-81
2021/07/24 09:44:26;;;;;;;12.52;6.22;;;;;;;22.60;52.39;101025.13;5071877;28;20491;-81
2021/07/24 09:46:58;;;;;;;9.93;6.00;;;;;;;22.58;51.23;101017.09;5069930;28;20040;-81
2021/07/24 09:49:39;;;;;;;15.50;6.75;;;;;;;22.64;51.04;101004.44;5071346;28;20040;-81
2021/07/24 09:52:12;;;;;;;8.18;5.70;;;;;;;22.57;50.86;101009.09;5069815;28;20028;-81
2021/07/24 09:54:37;;;;;;;10.85;6.97;;;;;;;22.67;51.22;101006.78;5072002;28;20030;-81
2021/07/24 09:57:03;;;;;;;13.52;7.10;;;;;;;22.70;51.73;101004.44;5071405;28;20035;-81
2021/07/24 09:59:31;;;;;;;7.50;5.82;;;;;;;22.77;51.25;101009.09;5071192;28;20150;-81
2021/07/24 10:02:01;;;;;;;11.75;6.15;;;;;;;22.79;51.01;101009.75;5069622;28;20028;-81
2021/07/24 10:04:40;;;;;;;7.67;5.63;;;;;;;22.88;50.92;100995.59;5071515;28;20532;-81
2021/07/24 10:07:09;;;;;;;11.70;5.50;;;;;;;22.88;47.16;100998.34;5071176;28;20267;-81
2021/07/24 10:09:40;;;;;;;11.07;5.93;;;;;;;22.96;47.08;100997.34;5069745;28;20526;-81
2021/07/24 10:12:13;;;;;;;8.45;5.47;;;;;;;23.01;46.79;101002.19;5071442;28;20040;-81
2021/07/24 10:14:39;;;;;;;14.40;5.70;;;;;;;23.09;47.32;100996.50;5070421;28;20399;-81
2021/07/24 10:17:06;;;;;;;11.60;5.43;;;;;;;23.23;47.76;101002.78;5071167;28;20028;-81
2021/07/24 10:19:31;;;;;;;6.22;4.63;;;;;;;23.16;46.36;100991.84;5071421;28;20032;-81
2021/07/24 10:21:57;;;;;;;8.93;5.50;;;;;;;23.12;46.48;100988.66;5069047;28;20048;-81
2021/07/24 10:24:23;;;;;;;8.35;4.85;;;;;;;23.17;44.65;100982.53;5071464;28;20029;-81
2021/07/24 10:26:58;;;;;;;5.30;4.13;;;;;;;23.20;45.66;100976.63;5069539;28;20040;-80
2021/07/24 10:29:30;;;;;;;10.20;4.97;;;;;;;23.27;46.18;100966.50;5071093;28;20066;-81
2021/07/24 10:32:07;;;;;;;10.05;4.55;;;;;;;23.34;46.18;100980.19;5069079;28;20162;-81
2021/07/24 10:34:33;;;;;;;6.68;4.90;;;;;;;23.39;46.33;100974.91;5070608;28;20024;-81
2021/07/24 10:36:59;;;;;;;11.57;3.40;;;;;;;23.38;42.71;100973.22;5071036;28;20046;-81
2021/07/24 10:39:25;;;;;;;6.55;3.88;;;;;;;23.48;43.99;100979.13;5070772;28;20040;-81
2021/07/24 10:42:11;;;;;;;8.05;4.38;;;;;;;23.54;43.30;100971.91;5069175;28;20032;-81
2021/07/24 10:44:38;;;;;;;8.05;3.90;;;;;;;23.57;44.61;100982.47;5072299;28;20042;-81
2021/07/24 10:47:03;;;;;;;6.28;4.53;;;;;;;23.64;44.99;100994.28;5074674;28;20032;-81
2021/07/24 10:49:34;;;;;;;7.00;4.30;;;;;;;23.44;44.29;100979.75;5074695;28;20035;-81
2021/07/24 10:52:04;;;;;;;;;;;;;;;23.50;44.87;100984.38;5074773;28;20286;-81
2021/07/24 10:54:54;;;;;;;6.03;4.07;;;;;;;23.45;45.33;100978.69;5074168;28;19969;-81
2021/07/24 10:57:49;;;;;;;7.10;4.45;;;;;;;23.51;47.41;100980.56;5073768;28;20112;-81
2021/07/24 11:00:17;;;;;;;7.57;5.10;;;;;;;23.55;48.07;100987.34;5072222;28;20077;-80
2021/07/24 11:02:50;;;;;;;9.30;4.88;;;;;;;23.65;49.57;100989.63;5074473;28;20028;-80
2021/07/24 11:05:26;;;;;;;13.00;6.15;;;;;;;23.76;50.41;100989.84;5073842;28;20068;-81
2021/07/24 11:07:51;;;;;;;15.07;5.97;;;;;;;23.87;49.82;100995.69;5074183;28;20025;-81
2021/07/24 11:10:17;;;;;;;8.57;5.30;;;;;;;23.90;49.60;100995.25;5072509;28;20020;-81
2021/07/24 11:12:42;;;;;;;17.20;6.05;;;;;;;24.03;49.59;100982.31;5074436;28;20024;-81
2021/07/24 11:15:16;;;;;;;11.25;5.90;;;;;;;24.05;49.99;100982.94;5073996;28;20045;-81
2021/07/24 11:17:42;;;;;;;10.70;5.38;;;;;;;24.10;50.47;100975.97;5072609;28;20020;-81